BAW828Y EGLL-EIDW
Flight info
| Callsign | BAW828Y |
|---|---|
| Flight time | 0h 47m |
| Altitude | 34000 |
| Route | CPT L9 DIDZA N14 BIBPE DCT OKTAD DCT MEDOG DCT KRAGY DCT PEMOB DCT LEMGU M17 VATRY VATRY4L |
| Aircraft | A319/M-SDE3FGHIRWY/LB1 |
Departure
| Time | 2026-05-07 09:58 |
|---|---|
| Airport | London Heathrow Airport (EGLL) |
Arrival
| Time | 2026-05-07 10:45 |
|---|---|
| Airport | Dublin Airport (EIDW) |
| Time | Latitude | Longitude | Altitude | Speed | Heading |
|---|---|---|---|---|---|
| 2026-05-07 09:58 | 51.22219 | -0.67694 | 13781 ft | 347 kts | 221° |
| 2026-05-07 09:58 | 51.20396 | -0.70251 | 14486 ft | 350 kts | 221° |
| 2026-05-07 09:58 | 51.18581 | -0.72794 | 14930 ft | 353 kts | 221° |
| 2026-05-07 09:59 | 51.16841 | -0.75548 | 15055 ft | 353 kts | 232° |
| 2026-05-07 09:59 | 51.15686 | -0.78994 | 15084 ft | 354 kts | 251° |
| 2026-05-07 09:59 | 51.15326 | -0.82855 | 15084 ft | 355 kts | 271° |
| 2026-05-07 09:59 | 51.15808 | -0.86707 | 15081 ft | 357 kts | 290° |
| 2026-05-07 10:00 | 51.17109 | -0.90093 | 15299 ft | 364 kts | 311° |
| 2026-05-07 10:00 | 51.18969 | -0.92856 | 15971 ft | 366 kts | 317° |
| 2026-05-07 10:00 | 51.20859 | -0.95583 | 16658 ft | 368 kts | 317° |
| 2026-05-07 10:00 | 51.22770 | -0.98362 | 17337 ft | 372 kts | 316° |
| 2026-05-07 10:01 | 51.24693 | -1.01174 | 18023 ft | 375 kts | 316° |
| 2026-05-07 10:01 | 51.26628 | -1.04005 | 18662 ft | 379 kts | 316° |
| 2026-05-07 10:01 | 51.28555 | -1.06825 | 19240 ft | 382 kts | 316° |
| 2026-05-07 10:01 | 51.30527 | -1.09704 | 19843 ft | 385 kts | 316° |
| 2026-05-07 10:02 | 51.32516 | -1.12604 | 20443 ft | 389 kts | 316° |
| 2026-05-07 10:02 | 51.34527 | -1.15536 | 21037 ft | 392 kts | 316° |
| 2026-05-07 10:02 | 51.36550 | -1.18485 | 21627 ft | 395 kts | 316° |
| 2026-05-07 10:02 | 51.38591 | -1.21469 | 22199 ft | 398 kts | 316° |
| 2026-05-07 10:03 | 51.40642 | -1.24477 | 22753 ft | 402 kts | 316° |
| 2026-05-07 10:03 | 51.42715 | -1.27519 | 23288 ft | 405 kts | 316° |
| 2026-05-07 10:03 | 51.44803 | -1.30587 | 23794 ft | 408 kts | 316° |
| 2026-05-07 10:03 | 51.46906 | -1.33681 | 24227 ft | 412 kts | 316° |
| 2026-05-07 10:04 | 51.49024 | -1.36801 | 24667 ft | 414 kts | 316° |
| 2026-05-07 10:04 | 51.51155 | -1.39945 | 25099 ft | 417 kts | 316° |
| 2026-05-07 10:04 | 51.53297 | -1.43113 | 25528 ft | 420 kts | 316° |
| 2026-05-07 10:04 | 51.55459 | -1.46312 | 25947 ft | 423 kts | 317° |
| 2026-05-07 10:05 | 51.57632 | -1.49527 | 26369 ft | 426 kts | 317° |
| 2026-05-07 10:05 | 51.59821 | -1.52771 | 26786 ft | 430 kts | 317° |
| 2026-05-07 10:05 | 51.62031 | -1.56050 | 27203 ft | 433 kts | 317° |
| 2026-05-07 10:05 | 51.64250 | -1.59347 | 27620 ft | 436 kts | 317° |
| 2026-05-07 10:06 | 51.66423 | -1.62687 | 28020 ft | 439 kts | 313° |
| 2026-05-07 10:06 | 51.68311 | -1.66561 | 28428 ft | 441 kts | 303° |
| 2026-05-07 10:06 | 51.69784 | -1.70931 | 28814 ft | 444 kts | 293° |
| 2026-05-07 10:06 | 51.70786 | -1.75651 | 29217 ft | 447 kts | 283° |
| 2026-05-07 10:07 | 51.71306 | -1.80614 | 29603 ft | 450 kts | 276° |
| 2026-05-07 10:07 | 51.71721 | -1.85627 | 29977 ft | 452 kts | 281° |
| 2026-05-07 10:07 | 51.72433 | -1.90594 | 30315 ft | 455 kts | 283° |
| 2026-05-07 10:07 | 51.73178 | -1.95566 | 30620 ft | 457 kts | 283° |
| 2026-05-07 10:08 | 51.73674 | -1.98884 | 30828 ft | 459 kts | 283° |
| 2026-05-07 10:08 | 51.74663 | -2.05552 | 31233 ft | 462 kts | 283° |
| 2026-05-07 10:08 | 51.75407 | -2.10591 | 31623 ft | 461 kts | 283° |
| 2026-05-07 10:08 | 51.76149 | -2.15619 | 32073 ft | 460 kts | 283° |
| 2026-05-07 10:09 | 51.76887 | -2.20652 | 32493 ft | 459 kts | 283° |
| 2026-05-07 10:09 | 51.77380 | -2.24043 | 32782 ft | 459 kts | 283° |
| 2026-05-07 10:09 | 51.78108 | -2.29057 | 33221 ft | 458 kts | 283° |
| 2026-05-07 10:09 | 51.78833 | -2.34070 | 33652 ft | 457 kts | 283° |
| 2026-05-07 10:10 | 51.79553 | -2.39079 | 34008 ft | 457 kts | 283° |
| 2026-05-07 10:10 | 51.80974 | -2.48946 | 34081 ft | 450 kts | 283° |
| 2026-05-07 10:11 | 51.82383 | -2.58793 | 34080 ft | 449 kts | 282° |
| 2026-05-07 10:11 | 51.83729 | -2.68663 | 34070 ft | 449 kts | 282° |
| 2026-05-07 10:12 | 51.85049 | -2.78553 | 34079 ft | 449 kts | 282° |
| 2026-05-07 10:12 | 51.86369 | -2.88458 | 34086 ft | 449 kts | 282° |
| 2026-05-07 10:13 | 51.87687 | -2.98350 | 34067 ft | 449 kts | 282° |
| 2026-05-07 10:13 | 51.88990 | -3.08235 | 34067 ft | 449 kts | 282° |
| 2026-05-07 10:14 | 51.90281 | -3.18074 | 34050 ft | 449 kts | 282° |
| 2026-05-07 10:14 | 51.91577 | -3.27990 | 34040 ft | 450 kts | 281° |
| 2026-05-07 10:15 | 51.92865 | -3.37932 | 34031 ft | 450 kts | 281° |
| 2026-05-07 10:15 | 51.94129 | -3.47803 | 34041 ft | 450 kts | 281° |
| 2026-05-07 10:16 | 51.95392 | -3.57733 | 34026 ft | 450 kts | 281° |
| 2026-05-07 10:16 | 51.96658 | -3.67670 | 34029 ft | 449 kts | 281° |
| 2026-05-07 10:17 | 51.97918 | -3.77625 | 34027 ft | 449 kts | 281° |
| 2026-05-07 10:17 | 51.99153 | -3.87561 | 34032 ft | 449 kts | 281° |
| 2026-05-07 10:18 | 52.00383 | -3.97504 | 34028 ft | 448 kts | 281° |
| 2026-05-07 10:18 | 52.01599 | -4.07362 | 34032 ft | 448 kts | 281° |
| 2026-05-07 10:19 | 52.02812 | -4.17301 | 34034 ft | 448 kts | 280° |
| 2026-05-07 10:19 | 52.04011 | -4.27228 | 34036 ft | 448 kts | 280° |
| 2026-05-07 10:20 | 52.05210 | -4.37163 | 34034 ft | 447 kts | 280° |
| 2026-05-07 10:20 | 52.06399 | -4.47119 | 34033 ft | 447 kts | 280° |
| 2026-05-07 10:21 | 52.07567 | -4.57040 | 34035 ft | 447 kts | 280° |
| 2026-05-07 10:21 | 52.08722 | -4.66909 | 33919 ft | 446 kts | 280° |
| 2026-05-07 10:21 | 52.09305 | -4.71862 | 33635 ft | 446 kts | 280° |
| 2026-05-07 10:22 | 52.09888 | -4.76814 | 33360 ft | 445 kts | 280° |
| 2026-05-07 10:22 | 52.10468 | -4.81776 | 33085 ft | 446 kts | 279° |
| 2026-05-07 10:22 | 52.11043 | -4.86732 | 32812 ft | 445 kts | 279° |
| 2026-05-07 10:22 | 52.11609 | -4.91662 | 32366 ft | 441 kts | 279° |
| 2026-05-07 10:23 | 52.12166 | -4.96559 | 31788 ft | 439 kts | 279° |
| 2026-05-07 10:23 | 52.12722 | -5.01439 | 31173 ft | 437 kts | 279° |
| 2026-05-07 10:23 | 52.13375 | -5.06265 | 30585 ft | 435 kts | 286° |
| 2026-05-07 10:23 | 52.14503 | -5.10757 | 29997 ft | 434 kts | 297° |
| 2026-05-07 10:24 | 52.16147 | -5.14867 | 29363 ft | 432 kts | 308° |
| 2026-05-07 10:24 | 52.18213 | -5.18376 | 28808 ft | 428 kts | 318° |
| 2026-05-07 10:24 | 52.20630 | -5.21194 | 28236 ft | 426 kts | 329° |
| 2026-05-07 10:24 | 52.23261 | -5.23396 | 27672 ft | 422 kts | 332° |
| 2026-05-07 10:25 | 52.25883 | -5.25535 | 27094 ft | 419 kts | 332° |
| 2026-05-07 10:25 | 52.28478 | -5.27660 | 26548 ft | 415 kts | 332° |
| 2026-05-07 10:25 | 52.31050 | -5.29772 | 25999 ft | 412 kts | 332° |
| 2026-05-07 10:25 | 52.33601 | -5.31875 | 25463 ft | 408 kts | 332° |
| 2026-05-07 10:26 | 52.36128 | -5.33964 | 24933 ft | 406 kts | 332° |
| 2026-05-07 10:26 | 52.38607 | -5.36014 | 24431 ft | 403 kts | 332° |
| 2026-05-07 10:26 | 52.41105 | -5.38079 | 24087 ft | 402 kts | 332° |
| 2026-05-07 10:26 | 52.43710 | -5.39780 | 23919 ft | 403 kts | 339° |
| 2026-05-07 10:27 | 52.46361 | -5.41309 | 23694 ft | 403 kts | 339° |
| 2026-05-07 10:27 | 52.49008 | -5.42809 | 23433 ft | 401 kts | 340° |
| 2026-05-07 10:27 | 52.51647 | -5.44295 | 23148 ft | 399 kts | 340° |
| 2026-05-07 10:27 | 52.54243 | -5.45758 | 22886 ft | 398 kts | 339° |
| 2026-05-07 10:28 | 52.56852 | -5.47234 | 22612 ft | 396 kts | 339° |
| 2026-05-07 10:28 | 52.59450 | -5.48713 | 22334 ft | 394 kts | 339° |
| 2026-05-07 10:28 | 52.62033 | -5.50194 | 22065 ft | 392 kts | 339° |
| 2026-05-07 10:28 | 52.64603 | -5.51674 | 21803 ft | 390 kts | 339° |
| 2026-05-07 10:29 | 52.67159 | -5.53148 | 21534 ft | 388 kts | 339° |
| 2026-05-07 10:29 | 52.69707 | -5.54614 | 21271 ft | 387 kts | 339° |
| 2026-05-07 10:29 | 52.72242 | -5.56073 | 21012 ft | 385 kts | 339° |
| 2026-05-07 10:30 | 52.77253 | -5.58966 | 20498 ft | 381 kts | 339° |
| 2026-05-07 10:30 | 52.79754 | -5.60414 | 20243 ft | 380 kts | 339° |
| 2026-05-07 10:30 | 52.82245 | -5.61857 | 19980 ft | 378 kts | 338° |
| 2026-05-07 10:30 | 52.84596 | -5.63799 | 19082 ft | 382 kts | 322° |
| 2026-05-07 10:31 | 52.86476 | -5.66925 | 18193 ft | 386 kts | 304° |
| 2026-05-07 10:31 | 52.87977 | -5.70567 | 17677 ft | 380 kts | 303° |
| 2026-05-07 10:31 | 52.89476 | -5.74148 | 17088 ft | 375 kts | 303° |
| 2026-05-07 10:31 | 52.90968 | -5.77653 | 16581 ft | 369 kts | 304° |
| 2026-05-07 10:32 | 52.92419 | -5.81048 | 16072 ft | 363 kts | 304° |
| 2026-05-07 10:32 | 52.93866 | -5.84449 | 15566 ft | 357 kts | 303° |
| 2026-05-07 10:32 | 52.95281 | -5.87790 | 15068 ft | 352 kts | 303° |
| 2026-05-07 10:32 | 52.96677 | -5.91105 | 14577 ft | 347 kts | 303° |
| 2026-05-07 10:33 | 52.98047 | -5.94371 | 14090 ft | 343 kts | 303° |
| 2026-05-07 10:33 | 52.99401 | -5.97603 | 13577 ft | 339 kts | 303° |
| 2026-05-07 10:33 | 53.00735 | -6.00799 | 13076 ft | 334 kts | 303° |
| 2026-05-07 10:33 | 53.02036 | -6.03919 | 12608 ft | 329 kts | 303° |
| 2026-05-07 10:34 | 53.03337 | -6.07034 | 12135 ft | 325 kts | 303° |
| 2026-05-07 10:34 | 53.04620 | -6.10105 | 11670 ft | 321 kts | 303° |
| 2026-05-07 10:34 | 53.05884 | -6.13142 | 11212 ft | 318 kts | 303° |
| 2026-05-07 10:34 | 53.07137 | -6.16157 | 10756 ft | 315 kts | 303° |
| 2026-05-07 10:35 | 53.08400 | -6.19136 | 10290 ft | 314 kts | 307° |
| 2026-05-07 10:35 | 53.09965 | -6.21583 | 10165 ft | 303 kts | 318° |
| 2026-05-07 10:35 | 53.11542 | -6.23743 | 10042 ft | 292 kts | 319° |
| 2026-05-07 10:35 | 53.13100 | -6.25859 | 9821 ft | 286 kts | 319° |
| 2026-05-07 10:36 | 53.14635 | -6.27943 | 9481 ft | 284 kts | 319° |
| 2026-05-07 10:36 | 53.16160 | -6.30015 | 9124 ft | 282 kts | 319° |
| 2026-05-07 10:36 | 53.17676 | -6.32080 | 8763 ft | 280 kts | 319° |
| 2026-05-07 10:36 | 53.19183 | -6.34136 | 8395 ft | 279 kts | 319° |
| 2026-05-07 10:37 | 53.20680 | -6.36186 | 8036 ft | 277 kts | 319° |
| 2026-05-07 10:37 | 53.22173 | -6.38230 | 7678 ft | 276 kts | 319° |
| 2026-05-07 10:37 | 53.23650 | -6.40257 | 7329 ft | 275 kts | 319° |
| 2026-05-07 10:37 | 53.25127 | -6.42288 | 7001 ft | 274 kts | 319° |
| 2026-05-07 10:38 | 53.26591 | -6.44311 | 6662 ft | 273 kts | 319° |
| 2026-05-07 10:38 | 53.28037 | -6.46313 | 6321 ft | 271 kts | 319° |
| 2026-05-07 10:38 | 53.29488 | -6.48324 | 5886 ft | 270 kts | 319° |
| 2026-05-07 10:38 | 53.30928 | -6.50317 | 5476 ft | 268 kts | 319° |
| 2026-05-07 10:39 | 53.32361 | -6.52300 | 5069 ft | 266 kts | 319° |
| 2026-05-07 10:39 | 53.33789 | -6.54275 | 4657 ft | 265 kts | 319° |
| 2026-05-07 10:39 | 53.35203 | -6.56234 | 4253 ft | 263 kts | 319° |
| 2026-05-07 10:39 | 53.36586 | -6.58154 | 4084 ft | 252 kts | 319° |
| 2026-05-07 10:40 | 53.37937 | -6.59929 | 3938 ft | 242 kts | 327° |
| 2026-05-07 10:40 | 53.39476 | -6.60862 | 3791 ft | 238 kts | 351° |
| 2026-05-07 10:40 | 53.41135 | -6.60810 | 3800 ft | 240 kts | 11° |
| 2026-05-07 10:40 | 53.42693 | -6.59810 | 3779 ft | 241 kts | 31° |
| 2026-05-07 10:41 | 53.43945 | -6.58004 | 3664 ft | 233 kts | 52° |
| 2026-05-07 10:41 | 53.44728 | -6.55714 | 3461 ft | 221 kts | 72° |
| 2026-05-07 10:41 | 53.45021 | -6.53271 | 3225 ft | 208 kts | 90° |
| 2026-05-07 10:41 | 53.44932 | -6.50905 | 3002 ft | 200 kts | 97° |
| 2026-05-07 10:42 | 53.44813 | -6.48596 | 2689 ft | 196 kts | 96° |
| 2026-05-07 10:42 | 53.44698 | -6.46384 | 2419 ft | 184 kts | 96° |
| 2026-05-07 10:42 | 53.44589 | -6.44322 | 2173 ft | 171 kts | 96° |
| 2026-05-07 10:42 | 53.44488 | -6.42420 | 1952 ft | 157 kts | 96° |
| 2026-05-07 10:43 | 53.44395 | -6.40675 | 1746 ft | 148 kts | 96° |
| 2026-05-07 10:43 | 53.44308 | -6.39030 | 1538 ft | 137 kts | 96° |
| 2026-05-07 10:43 | 53.44221 | -6.37467 | 1357 ft | 133 kts | 97° |
| 2026-05-07 10:43 | 53.44124 | -6.35938 | 1169 ft | 131 kts | 96° |
| 2026-05-07 10:44 | 53.44057 | -6.34418 | 1018 ft | 130 kts | 95° |
| 2026-05-07 10:44 | 53.43998 | -6.32894 | 840 ft | 130 kts | 97° |
| 2026-05-07 10:44 | 53.43895 | -6.31396 | 653 ft | 130 kts | 98° |
| 2026-05-07 10:44 | 53.43817 | -6.29903 | 432 ft | 127 kts | 97° |
| 2026-05-07 10:45 | 53.43740 | -6.28437 | 286 ft | 126 kts | 99° |
| 2026-05-07 10:45 | 53.43658 | -6.27059 | 210 ft | 103 kts | 95° |
| 2026-05-07 10:45 | 53.43609 | -6.26151 | 210 ft | 55 kts | 95° |
| 2026-05-07 10:45 | 53.43570 | -6.25813 | 210 ft | 20 kts | 136° |
| 2026-05-07 10:46 | 53.43434 | -6.25710 | 211 ft | 23 kts | 159° |
| 2026-05-07 10:46 | 53.43290 | -6.25603 | 214 ft | 23 kts | 155° |
| 2026-05-07 10:46 | 53.43203 | -6.25537 | 213 ft | 15 kts | 157° |
| 2026-05-07 10:46 | 53.43096 | -6.25463 | 211 ft | 18 kts | 157° |
| 2026-05-07 10:47 | 53.42976 | -6.25376 | 213 ft | 18 kts | 155° |
| 2026-05-07 10:47 | 53.42868 | -6.25296 | 215 ft | 15 kts | 156° |
| 2026-05-07 10:47 | 53.42794 | -6.25181 | 215 ft | 16 kts | 96° |
| 2026-05-07 10:47 | 53.42823 | -6.25035 | 211 ft | 15 kts | 37° |
| 2026-05-07 10:48 | 53.42871 | -6.24955 | 211 ft | 4 kts | 48° |
| 2026-05-07 10:48 | 53.42867 | -6.24914 | 211 ft | 5 kts | 133° |
| 2026-05-07 10:48 | 53.42837 | -6.24864 | 211 ft | 7 kts | 134° |
| 2026-05-07 10:48 | 53.42831 | -6.24854 | 211 ft | 0 kts | 134° |